Endeavor CRJ9 at Raleigh/Durham on Oct 2nd 2022, runway excursion

Last Update: October 4, 2022 / 15:55:44 GMT/Zulu time

Bookmark this article
Incident Facts

Date of incident
Oct 2, 2022

Classification
Incident

Flight number
DL-5467

Aircraft Registration
N297PQ

ICAO Type Designator
CRJ9

Airport ICAO Code
KRDU

An Endeavor Canadair CRJ-900 on behalf of Delta Airlines, registration N297PQ performing flight DL-5467 from Newark,NJ to Raleigh/Durham,NC (USA), was on an ILS final approach to Raleigh's runway 23L when the crew went around due to the ILS becoming unreliable. The crew consulted with ATC, who advised now both ILSs for runway 23L and 23R indicated unreliable, the better option seemed to be runway 23R however. The crew decided to position for an ILS approach to runway 23R and touched down safely about 17 minutes after the go around, however, while attempting to vacate the runway at the last exit the aircraft collided with a threshold runway 05L light and vacated the runway on the taxiway edge line.

The FAA reported: "AIRCRAFT LANDED AND STRUCK A THRESHOLD LIGHT, RALEIGH-DURHAM, NC." rating the damage minor.

The aircraft remained on the ground for about 21 hours then continued service.



Related NOTAMs:
!RDU 10/035 RDU NAV ILS RWY 23R CAT III NA 2210012221-2210042000EST
!RDU 10/030 RDU RWY 05L/23R CLSD DLY 0130-2130 2210030130-2210072130
!RDU 09/354 RDU NAV ILS RWY 05L U/S 2210030130-2210032230
!RDU 10/033 RDU RWY 23R PAPI U/S 2210011620-2210032100
!RDU 09/355 RDU NAV ILS RWY 23R U/S 2210030130-2210032230
!RDU 09/303 RDU NAV ILS RWY 05R GP U/S 2210041200-2210042000
!RDU 09/287 RDU NAV ILS RWY 05R GP U/S 2210031200-2210032000
!RDU 10/007 RDU NAV ILS RWY 05L U/S DLY 0130-2230 2210040130-2210072230
!RDU 10/006 RDU NAV ILS RWY 23R U/S DLY 0130-2230 2210040130-2210072230
!RDU 10/020 RDU NAV ILS RWY 05L GP U/S 2210010743-2210042000EST

Metars:
KRDU 022230Z 02007KT 9SM -DZ BKN008 OVC013 15/14 A2999 RMK AO2 RAE18DZB18 P0001 T01500139=
KRDU 022217Z 02009G15KT 4SM -RA BR OVC010 15/14 A2998 RMK AO2 P0001 T01500139=
KRDU 022151Z 01008G14KT 1 1/4SM -RA BR BKN006 OVC012 15/14 A2996 RMK AO2 SFC VIS 4 SLP145 P0006 T01500144=
KRDU 022055Z 36009G16KT 320V040 1 1/4SM -RA BR BKN005 OVC016 16/15 A2995 RMK AO2 SFC VIS 3 P0000 T01610150=
KRDU 022051Z 01008KT 4SM -RA BR BKN005 BKN011 OVC016 16/15 A2995 RMK AO2 DZE17RAB17 SLP139 P0007 60007 T01610150 53006=
KRDU 021951Z 35005KT 6SM -DZ BR BKN009 OVC012 17/15 A2993 RMK AO2 RAB13E26DZB48 SLP132 P0000 T01670150=
KRDU 021919Z 35004KT 4SM -RA BR BKN008 OVC014 17/15 A2992 RMK AO2 RAB13 P0000 T01670150=
KRDU 021851Z 30005KT 10SM OVC013 17/15 A2993 RMK AO2 SLP132 T01670150=
KRDU 021751Z VRB05KT 10SM OVC013 17/14 A2993 RMK AO2 SLP133 T01670144 10189 20128 50002=
KRDU 021651Z 35007KT 10SM BKN017 OVC032 18/13 A2993 RMK AO2 SLP133 T01780133=
Aircraft Registration Data
Registration mark
N297PQ
Country of Registration
United States
Date of Registration
mhec eehAlieckAA Subscribe to unlock
Manufacturer
BOMBARDIER INC
Aircraft Model / Type
CL-600-2D24
Number of Seats
ICAO Aircraft Type
CRJ9
Year of Manufacture
Serial Number
Aircraft Address / Mode S Code (HEX)
Engine Count
Engine Manufacturer
Engine Model
Engine Type
Pounds of Thrust
Main Owner
IiiAmilmckjgpdjqlhqpqckkbjgfAAbplmiAnf il eiggApecinhgdme hlqnAfpqmeqkimbAbmehmgbfAhjlmfbAbhAmfpejiflcbqjeghffbj Subscribe to unlock
Incident Facts

Date of incident
Oct 2, 2022

Classification
Incident

Flight number
DL-5467

Aircraft Registration
N297PQ

ICAO Type Designator
CRJ9

Airport ICAO Code
KRDU

This article is published under license from Avherald.com. © of text by Avherald.com.
Article source

You can read 2 more free articles without a subscription.

Subscribe now and continue reading without any limits!

Are you a subscriber? Login
Subscribe

Read unlimited articles and receive our daily update briefing. Gain better insights into what is happening in commercial aviation safety.

Send tip

Support AeroInside by sending a small tip amount.

Related articles

Newest articles

Subscribe today

Are you researching aviation incidents? Get access to AeroInside Insights, unlimited read access and receive the daily newsletter.

Pick your plan and subscribe

Partner

Blockaviation logo

A new way to document and demonstrate airworthiness compliance and aircraft value. Find out more.

Virtual Speech logo

ELITE Simulation Solutions is a leading global provider of Flight Simulation Training Devices, IFR training software as well as flight controls and related services. Find out more.

AeroInside Blog
Popular aircraft
Airbus A320
Boeing 737-800
Boeing 737-800 MAX
Popular airlines
American Airlines
United
Delta
Air Canada
Lufthansa
British Airways